Airfield :
LOGIN :

Register | Disclaimer

   EN    FR    IT 

 










Legend :    VFR   Marginal VFR   IFR   Intensive IFR   Very Intensive IFR
Visi :
Ceiling :
>= 8 km
>= 3000ft
5 to 8 km
1000 to 3000 ft
1500m to 5 km
500 to 1000 ft
800 to 1500m
200 to 500 ft
< 800m
< 200 ft
Symbols :   Thunderstorms  Fog  Heavy snow  Heavy precipitations  Wind > 20 kt
SIGMETs :     Misc.  Thunderstorms  Icing  Turbulence  Mountain Waves  Volcanic Ashes






- Airport Elevation : 142 ft
- IATA code : ALC


LEAL - Alicante

CURRENT METAR :
  • 211030Z 06017G28KT 9999 FEW025TCU BKN032 15/11 Q1012 NOSIG

EXPIRED METARs :
  • 211000Z 06017G28KT 9999 FEW018CB SCT025 BKN035 14/10 Q1012 NOSIG
  • 210930Z 05019G29KT 9999 VCTS FEW018CB BKN022 OVC035 14/11 Q1011 NOSIG
  • 210900Z 05017G28KT 9999 FEW018TCU BKN022 OVC035 13/11 Q1011 NOSIG
  • 210830Z 06016KT 040V100 8000 FEW018 SCT022TCU BKN035 13/10 Q1011 NOSIG
  • 210800Z 07021KT 8000 -RA FEW010 FEW022CB BKN035 14/10 Q1011 NOSIG

TAF AMD TAF LEAL
Valid from the 21 at 07:00 until the 22 at 06:00 UTC


210752Z 2107/2206 06012KT 9999 SCT030 TX14/2112Z TN05/2206Z
PROB40
TEMPO 2107/2112 4000 TSRA FEW020CB
BECMG 2107/2108 07020G30KT
BECMG 2113/2115 12010KT
BECMG 2202/2204 04010KT



MET'MAP, your aeronautical weather chart ! - Copyright ORBIFLY December 2007 - Disclaimer

ORBIFLY MET'MAP TEAM :

Programming & Development : Alexandra Zaïnal
Concept & original design : Baudouin d'Aumeries
Assistance for programming : Marc-Olivier Méhu
Technical & hardware support : Manuel Goepfert

Contact : metmap@orbifly.com




SOURCES & CREDITS :

   NOAA